createdAt,value
2017-11-15T06:50:08.545Z,0.00
2017-11-15T06:51:01.996Z,0.00
2017-11-15T06:52:00.886Z,0.00
2017-11-15T06:53:02.013Z,0.00
2017-11-15T06:54:00.898Z,0.00
2017-11-15T06:55:01.005Z,0.00
2017-11-15T06:56:00.921Z,0.00
2017-11-15T06:57:01.014Z,0.00
2017-11-15T06:58:00.938Z,0.00
2017-11-15T06:59:01.176Z,0.00
2017-11-15T07:00:00.947Z,0.00
2017-11-15T07:01:00.958Z,0.00
2017-11-15T07:02:00.964Z,0.00
2017-11-15T07:03:00.974Z,0.00
2017-11-15T07:04:00.978Z,0.00
2017-11-15T07:05:00.986Z,0.00
2017-11-15T07:06:00.991Z,0.00
2017-11-15T07:07:00.999Z,0.00
2017-11-15T07:08:01.019Z,0.00
2017-11-15T07:09:01.081Z,0.00
2017-11-15T07:10:01.022Z,0.00
2017-11-15T07:11:01.029Z,0.00
2017-11-15T07:12:01.048Z,0.00
2017-11-15T07:13:01.057Z,0.00
2017-11-15T07:14:01.058Z,0.00
2017-11-15T07:15:01.062Z,0.00
2017-11-15T07:16:06.054Z,0.00
2017-11-15T07:17:01.078Z,0.00
2017-11-15T07:18:03.197Z,0.00
2017-11-15T07:19:01.100Z,0.00
2017-11-15T07:20:01.162Z,0.00
2017-11-15T07:21:01.109Z,0.00
2017-11-15T07:22:01.181Z,0.00
2017-11-15T07:23:01.120Z,5.63
2017-11-15T07:24:08.154Z,5.63
2017-11-15T07:25:01.136Z,0.00
2017-11-15T07:26:01.262Z,0.00
2017-11-15T07:27:01.154Z,5.63
2017-11-15T07:28:01.274Z,5.63
2017-11-15T07:29:01.175Z,5.63
2017-11-15T07:30:01.286Z,5.63
2017-11-15T07:31:01.185Z,5.63
2017-11-15T07:32:01.299Z,5.63
2017-11-15T07:33:01.203Z,5.63
2017-11-15T07:34:01.309Z,5.63
2017-11-15T07:35:01.210Z,5.63
2017-11-15T07:36:01.221Z,5.63
2017-11-15T07:37:01.221Z,5.63
2017-11-15T07:38:01.294Z,5.63
2017-11-15T07:39:01.256Z,5.63
2017-11-15T07:40:01.246Z,5.63
2017-11-15T07:41:02.305Z,5.63
2017-11-15T07:57:26.277Z,5.63
2017-11-15T07:58:26.324Z,5.63
2017-11-15T07:59:26.275Z,5.63
2017-11-15T08:00:28.388Z,5.63
2017-11-15T08:01:26.289Z,5.63
2017-11-15T08:02:26.305Z,5.63
2017-11-15T08:03:26.312Z,5.63
2017-11-15T08:04:26.321Z,11.25
2017-11-15T08:05:26.332Z,11.25
2017-11-15T08:06:27.407Z,11.25
2017-11-15T08:07:26.337Z,11.25
2017-11-15T08:08:26.395Z,11.25
2017-11-15T08:09:26.356Z,11.25
2017-11-15T08:10:28.464Z,11.25
2017-11-15T08:11:26.363Z,11.25
2017-11-15T08:12:27.439Z,11.25
2017-11-15T08:13:26.377Z,11.25
2017-11-15T08:14:26.383Z,11.25
2017-11-15T08:15:26.393Z,11.25
2017-11-15T08:16:26.444Z,11.25
2017-11-15T08:17:26.420Z,11.25
2017-11-15T08:18:26.463Z,11.25
2017-11-15T08:19:26.421Z,11.25
2017-11-15T08:20:26.467Z,11.25
2017-11-15T08:21:26.435Z,11.25
2017-11-15T08:22:27.506Z,11.25
2017-11-15T08:23:26.450Z,11.25
2017-11-15T08:24:26.568Z,11.25
2017-11-15T08:25:26.464Z,11.25
2017-11-15T08:26:26.581Z,11.25
2017-11-15T08:27:26.509Z,11.25
2017-11-15T08:28:26.492Z,11.25
2017-11-15T08:29:26.501Z,11.25
2017-11-15T08:30:26.609Z,11.25
2017-11-15T08:31:26.511Z,11.25
2017-11-15T08:32:26.623Z,11.25
2017-11-15T08:33:26.525Z,11.25
2017-11-15T08:34:26.597Z,11.25
2017-11-15T08:35:26.528Z,11.25
2017-11-15T08:36:26.612Z,11.25
2017-11-15T08:37:26.553Z,11.25
2017-11-15T08:38:28.674Z,11.25
2017-11-15T08:39:26.568Z,11.25
2017-11-15T08:40:26.676Z,11.25
2017-11-15T08:41:26.586Z,11.25
2017-11-15T08:42:26.587Z,11.25
2017-11-15T08:43:26.595Z,16.88
2017-11-15T08:44:28.651Z,16.88
2017-11-15T08:45:27.129Z,16.88
2017-11-15T08:46:26.699Z,16.88
2017-11-15T08:47:26.632Z,16.88
2017-11-15T08:48:28.662Z,16.88
2017-11-15T08:49:26.642Z,16.88
2017-11-15T08:50:26.732Z,16.88
2017-11-15T08:51:26.648Z,16.88
2017-11-15T08:52:28.783Z,16.88
2017-11-15T08:53:26.677Z,16.88
2017-11-15T08:54:27.777Z,16.88
2017-11-15T08:55:27.130Z,22.50
2017-11-15T08:56:26.689Z,22.50
2017-11-15T08:57:26.709Z,22.50
2017-11-15T08:58:26.761Z,22.50
2017-11-15T08:59:26.718Z,22.50
2017-11-15T09:00:26.791Z,22.50
2017-11-15T09:01:26.741Z,22.50
2017-11-15T09:02:26.739Z,22.50
2017-11-15T09:03:26.747Z,22.50
2017-11-15T09:04:26.764Z,22.50
2017-11-15T09:05:26.762Z,22.50
2017-11-15T09:06:26.767Z,22.50
2017-11-15T09:07:26.826Z,22.50
2017-11-15T09:08:26.781Z,22.50
2017-11-15T09:09:26.837Z,22.50
2017-11-15T09:10:26.796Z,22.50
2017-11-15T09:11:26.845Z,22.50
2017-11-15T09:12:26.809Z,22.50
2017-11-15T09:13:26.867Z,22.50
2017-11-15T09:14:26.825Z,22.50
2017-11-15T09:15:26.835Z,28.13
2017-11-15T09:16:26.893Z,22.50
2017-11-15T09:17:26.851Z,22.50
2017-11-15T09:18:26.906Z,22.50
2017-11-15T09:19:26.864Z,22.50
2017-11-15T09:20:26.909Z,22.50
2017-11-15T09:21:26.882Z,22.50
2017-11-15T09:22:27.949Z,22.50
2017-11-15T09:23:26.890Z,22.50
2017-11-15T09:24:32.674Z,28.13
2017-11-15T09:25:26.905Z,28.13
2017-11-15T09:26:26.959Z,28.13
2017-11-15T09:27:26.966Z,28.13
2017-11-15T09:28:29.011Z,28.13
2017-11-15T09:29:26.941Z,28.13
2017-11-15T09:30:31.677Z,28.13
2017-11-15T09:31:26.949Z,28.13
2017-11-15T09:32:26.975Z,28.13
2017-11-15T09:33:26.966Z,28.13
2017-11-15T09:34:27.077Z,28.13
2017-11-15T09:35:26.978Z,28.13
2017-11-15T09:36:27.087Z,28.13
2017-11-15T09:37:26.991Z,28.13
2017-11-15T09:38:27.104Z,33.75
2017-11-15T09:39:27.004Z,33.75
2017-11-15T09:40:27.116Z,33.75
2017-11-15T09:41:27.021Z,33.75
2017-11-15T09:42:27.130Z,33.75
2017-11-15T09:43:27.037Z,33.75
2017-11-15T09:44:27.143Z,33.75
2017-11-15T09:45:27.058Z,33.75
2017-11-15T09:46:27.082Z,33.75
2017-11-15T09:47:27.071Z,39.38
2017-11-15T09:48:27.083Z,33.75
2017-11-15T09:49:27.081Z,33.75
2017-11-15T09:50:27.203Z,33.75
2017-11-15T09:51:27.096Z,33.75
2017-11-15T09:52:27.106Z,33.75
2017-11-15T09:53:27.110Z,33.75
2017-11-15T09:54:27.232Z,33.75
2017-11-15T09:55:27.160Z,33.75
2017-11-15T09:56:27.262Z,33.75
2017-11-15T09:57:27.147Z,33.75
2017-11-15T09:58:28.181Z,33.75
2017-11-15T09:59:27.162Z,33.75
2017-11-15T10:00:28.195Z,33.75
2017-11-15T10:01:27.175Z,39.38
2017-11-15T10:02:28.205Z,39.38
2017-11-15T10:03:27.191Z,39.38
2017-11-15T10:04:28.227Z,39.38
2017-11-15T10:05:27.204Z,39.38
2017-11-15T10:06:27.315Z,39.38
2017-11-15T10:07:27.209Z,39.38
2017-11-15T10:08:28.252Z,39.38
2017-11-15T10:09:27.235Z,39.38
2017-11-15T10:10:27.360Z,39.38
2017-11-15T10:11:27.245Z,45.00
2017-11-15T10:12:27.360Z,45.00
2017-11-15T10:13:27.260Z,45.00
2017-11-15T10:14:27.374Z,39.38
2017-11-15T10:15:27.272Z,39.38
2017-11-15T10:16:27.385Z,39.38
2017-11-15T10:17:27.288Z,45.00
2017-11-15T10:18:27.398Z,45.00
2017-11-15T10:19:27.305Z,45.00
2017-11-15T10:20:27.413Z,45.00
2017-11-15T10:21:27.325Z,45.00
2017-11-15T10:22:27.323Z,50.63
2017-11-15T10:23:27.330Z,50.63
2017-11-15T10:24:27.440Z,50.63
2017-11-15T10:25:27.373Z,56.25
2017-11-15T10:26:27.455Z,56.25
2017-11-15T10:27:27.353Z,50.63
2017-11-15T10:28:27.461Z,50.63
2017-11-15T10:29:27.374Z,50.63
2017-11-15T10:30:27.476Z,50.63
2017-11-15T10:31:27.389Z,50.63
2017-11-15T10:32:27.395Z,50.63
2017-11-15T10:33:27.408Z,56.25
2017-11-15T10:34:27.413Z,56.25
2017-11-15T10:35:27.514Z,56.25
2017-11-15T10:36:27.423Z,56.25
2017-11-15T10:37:27.530Z,56.25
2017-11-15T10:38:27.452Z,56.25
2017-11-15T10:39:27.448Z,61.88
2017-11-15T10:40:27.552Z,61.88
2017-11-15T10:41:27.467Z,56.25
2017-11-15T10:42:27.560Z,56.25
2017-11-15T10:43:27.480Z,56.25
2017-11-15T10:44:27.571Z,56.25
2017-11-15T10:45:27.496Z,56.25
2017-11-15T10:46:27.562Z,56.25
2017-11-15T10:47:27.500Z,56.25
2017-11-15T10:48:27.593Z,56.25
2017-11-15T10:49:27.521Z,56.25
2017-11-15T10:50:27.551Z,56.25
2017-11-15T10:51:27.539Z,56.25
2017-11-15T10:52:27.563Z,56.25
2017-11-15T10:53:27.547Z,56.25
2017-11-15T10:54:27.582Z,56.25
2017-11-15T10:55:27.567Z,56.25
2017-11-15T10:56:27.573Z,56.25
2017-11-15T10:57:27.596Z,56.25
2017-11-15T10:58:27.589Z,56.25
2017-11-15T10:59:27.609Z,50.63
2017-11-15T11:00:27.599Z,50.63
2017-11-15T11:01:27.624Z,50.63
2017-11-15T11:02:27.618Z,50.63
2017-11-15T11:03:27.706Z,50.63
2017-11-15T11:04:27.626Z,50.63
2017-11-15T11:05:27.736Z,56.25
2017-11-15T11:06:27.641Z,56.25
2017-11-15T11:07:34.689Z,56.25
2017-11-15T11:08:27.656Z,50.63
2017-11-15T11:09:29.786Z,50.63
2017-11-15T11:10:27.670Z,50.63
2017-11-15T11:11:32.703Z,50.63
2017-11-15T11:12:27.724Z,50.63
2017-11-15T11:13:33.705Z,45.00
2017-11-15T11:14:27.705Z,45.00
2017-11-15T11:15:27.779Z,45.00
2017-11-15T11:16:27.718Z,39.38
2017-11-15T11:17:29.841Z,39.38
2017-11-15T11:18:27.737Z,39.38
2017-11-15T11:19:28.852Z,39.38
2017-11-15T11:20:27.747Z,39.38
2017-11-15T11:21:27.892Z,39.38
2017-11-15T11:22:27.764Z,33.75
2017-11-15T11:23:28.950Z,33.75
2017-11-15T11:24:27.773Z,33.75
2017-11-15T11:25:27.860Z,33.75
2017-11-15T11:26:27.800Z,39.38
2017-11-15T11:27:27.827Z,39.38
2017-11-15T11:28:27.808Z,39.38
2017-11-15T11:29:27.844Z,39.38
2017-11-15T11:30:27.819Z,39.38
2017-11-15T11:31:27.856Z,39.38
2017-11-15T11:32:27.833Z,33.75
2017-11-15T11:33:27.870Z,33.75
2017-11-15T11:34:27.845Z,39.38
2017-11-15T11:35:27.885Z,39.38
2017-11-15T11:36:27.867Z,39.38
2017-11-15T11:37:27.901Z,39.38
2017-11-15T11:38:27.892Z,39.38
2017-11-15T11:39:27.914Z,33.75
2017-11-15T11:40:27.901Z,33.75
2017-11-15T11:41:27.925Z,39.38
2017-11-15T11:42:27.917Z,39.38
2017-11-15T11:43:28.005Z,39.38
2017-11-15T11:44:27.930Z,39.38
2017-11-15T11:45:28.007Z,39.38
2017-11-15T11:46:27.990Z,39.38
2017-11-15T11:47:29.020Z,39.38
2017-11-15T11:48:27.969Z,39.38
2017-11-15T11:49:34.664Z,39.38
2017-11-15T11:50:27.975Z,39.38
2017-11-15T11:51:34.677Z,39.38
2017-11-15T11:52:27.992Z,39.38
2017-11-15T11:53:28.028Z,39.38
2017-11-15T11:54:28.018Z,39.38
2017-11-15T11:55:30.095Z,39.38
2017-11-15T11:56:28.031Z,39.38
2017-11-15T11:57:28.060Z,39.38
2017-11-15T11:58:28.038Z,39.38
2017-11-15T11:59:29.128Z,39.38
2017-11-15T12:00:28.057Z,39.38
2017-11-15T12:01:30.147Z,39.38
2017-11-15T12:02:28.066Z,39.38
2017-11-15T12:03:32.711Z,39.38
2017-11-15T12:04:28.080Z,39.38
2017-11-15T12:05:29.170Z,39.38
2017-11-15T12:06:28.100Z,39.38
2017-11-15T12:07:28.201Z,39.38
2017-11-15T12:08:28.115Z,39.38
2017-11-15T12:09:37.225Z,39.38
2017-11-15T12:10:28.121Z,39.38
2017-11-15T12:11:29.156Z,39.38
2017-11-15T12:12:28.144Z,39.38
2017-11-15T12:13:28.235Z,33.75
2017-11-15T12:14:28.158Z,33.75
2017-11-15T12:15:28.253Z,33.75
2017-11-15T12:16:28.168Z,28.13
2017-11-15T12:17:29.301Z,28.13
2017-11-15T12:18:28.186Z,28.13
2017-11-15T12:19:29.315Z,28.13
2017-11-15T12:20:28.205Z,22.50
2017-11-15T12:21:28.210Z,22.50
2017-11-15T12:22:28.392Z,22.50
2017-11-15T12:23:28.241Z,22.50
2017-11-15T12:24:28.319Z,22.50
2017-11-15T12:25:28.241Z,22.50
2017-11-15T12:26:28.345Z,22.50
2017-11-15T12:27:28.253Z,22.50
2017-11-15T12:28:28.353Z,22.50
2017-11-15T12:29:28.273Z,28.13
2017-11-15T12:30:28.366Z,28.13
2017-11-15T12:31:28.287Z,28.13
2017-11-15T12:32:28.381Z,28.13
2017-11-15T12:33:28.300Z,28.13
2017-11-15T12:34:28.397Z,22.50
2017-11-15T12:35:28.321Z,22.50
2017-11-15T12:36:28.320Z,28.13
2017-11-15T12:37:28.406Z,28.13
2017-11-15T12:38:28.333Z,22.50
2017-11-15T12:39:28.425Z,22.50
2017-11-15T12:40:28.348Z,16.88
2017-11-15T12:41:28.440Z,16.88
2017-11-15T12:42:28.366Z,16.88
2017-11-15T12:43:28.451Z,16.88
2017-11-15T12:44:28.383Z,16.88
2017-11-15T12:45:28.467Z,16.88
2017-11-15T12:46:28.392Z,22.50
2017-11-15T12:47:28.478Z,22.50
2017-11-15T12:48:28.405Z,22.50
2017-11-15T12:49:28.501Z,22.50
2017-11-15T12:50:28.424Z,22.50
2017-11-15T12:51:28.437Z,22.50
2017-11-15T12:52:28.513Z,22.50
2017-11-15T12:53:28.443Z,22.50
2017-11-15T12:54:28.524Z,22.50
2017-11-15T12:55:28.459Z,22.50
2017-11-15T12:56:28.548Z,22.50
2017-11-15T12:57:28.476Z,22.50
2017-11-15T12:58:28.509Z,16.88
2017-11-15T12:59:28.567Z,16.88
2017-11-15T13:00:28.501Z,16.88
2017-11-15T13:01:28.574Z,22.50
2017-11-15T13:02:28.545Z,22.50
2017-11-15T13:03:28.521Z,22.50
2017-11-15T13:04:28.528Z,22.50
2017-11-15T13:05:28.587Z,16.88
2017-11-15T13:06:28.537Z,16.88
2017-11-15T13:07:28.589Z,16.88
2017-11-15T13:08:28.539Z,22.50
2017-11-15T13:09:28.601Z,22.50
2017-11-15T13:10:28.551Z,22.50
2017-11-15T13:11:28.615Z,16.88
2017-11-15T13:12:28.563Z,16.88
2017-11-15T13:13:28.589Z,16.88
2017-11-15T13:14:28.567Z,16.88
2017-11-15T13:15:28.602Z,16.88
2017-11-15T13:16:28.589Z,16.88
2017-11-15T13:17:28.616Z,16.88
2017-11-15T13:18:28.594Z,16.88
2017-11-15T13:19:28.631Z,16.88
2017-11-15T13:20:28.617Z,16.88
2017-11-15T13:21:28.644Z,16.88
2017-11-15T13:22:28.617Z,16.88
2017-11-15T13:23:29.680Z,16.88
2017-11-15T13:24:28.634Z,16.88
2017-11-15T13:25:28.673Z,16.88
2017-11-15T13:26:28.626Z,16.88
2017-11-15T13:27:28.706Z,22.50
2017-11-15T13:28:28.637Z,22.50
2017-11-15T13:29:28.701Z,16.88
2017-11-15T13:30:28.650Z,16.88
2017-11-15T13:31:28.714Z,16.88
2017-11-15T13:32:28.662Z,16.88
2017-11-15T13:33:28.725Z,16.88
2017-11-15T13:34:28.666Z,16.88
2017-11-15T13:35:29.761Z,16.88
2017-11-15T13:36:28.679Z,16.88
2017-11-15T13:37:28.758Z,16.88
2017-11-15T13:38:28.700Z,16.88
2017-11-15T13:39:28.765Z,16.88
2017-11-15T13:40:28.703Z,11.25
2017-11-15T13:41:28.787Z,11.25
2017-11-15T13:42:28.709Z,11.25
2017-11-15T13:43:28.792Z,11.25
2017-11-15T13:44:28.714Z,11.25
2017-11-15T13:45:28.828Z,11.25
2017-11-15T13:46:28.734Z,11.25
2017-11-15T13:47:28.729Z,11.25
2017-11-15T13:48:28.825Z,11.25
2017-11-15T13:49:29.019Z,11.25
2017-11-15T13:50:40.722Z,11.25
2017-11-15T13:51:28.759Z,11.25
2017-11-15T13:52:28.858Z,11.25
2017-11-15T13:53:28.763Z,11.25
2017-11-15T13:54:28.873Z,11.25
2017-11-15T13:55:28.772Z,11.25
2017-11-15T13:56:28.916Z,11.25
2017-11-15T13:57:28.792Z,11.25
2017-11-15T13:58:28.899Z,11.25
2017-11-15T13:59:28.787Z,11.25
2017-11-15T14:00:28.821Z,11.25
2017-11-15T14:01:28.795Z,11.25
2017-11-15T14:02:28.823Z,11.25
2017-11-15T14:03:28.811Z,11.25
2017-11-15T14:04:28.845Z,11.25
2017-11-15T14:05:28.821Z,11.25
2017-11-15T14:06:28.857Z,11.25
2017-11-15T14:07:28.836Z,11.25
2017-11-15T14:08:28.862Z,11.25
2017-11-15T14:09:28.847Z,11.25
2017-11-15T14:10:28.874Z,11.25
2017-11-15T14:11:28.857Z,11.25
2017-11-15T14:12:28.889Z,11.25
2017-11-15T14:13:28.855Z,11.25
2017-11-15T14:14:28.912Z,16.88
2017-11-15T14:15:28.867Z,16.88
2017-11-15T14:16:28.912Z,16.88
2017-11-15T14:17:28.878Z,16.88
2017-11-15T14:18:28.992Z,16.88
2017-11-15T14:19:28.887Z,16.88
2017-11-15T14:20:29.000Z,16.88
2017-11-15T14:22:29.014Z,16.88
2017-11-15T14:23:28.915Z,16.88
2017-11-15T14:24:28.935Z,16.88
2017-11-15T14:25:28.958Z,16.88
2017-11-15T14:26:28.940Z,16.88
2017-11-15T14:27:28.931Z,16.88
2017-11-15T14:28:28.967Z,16.88
2017-11-15T14:29:28.950Z,16.88
2017-11-15T14:30:28.968Z,16.88
2017-11-15T14:31:28.957Z,16.88
2017-11-15T14:32:28.992Z,16.88
2017-11-15T14:33:28.960Z,16.88
2017-11-15T14:34:29.002Z,16.88
2017-11-15T14:35:28.974Z,16.88
2017-11-15T14:36:29.011Z,16.88
2017-11-15T14:37:28.981Z,11.25
2017-11-15T14:38:29.028Z,11.25
2017-11-15T14:39:28.998Z,11.25
2017-11-15T14:40:29.041Z,11.25
2017-11-15T14:41:29.008Z,11.25
2017-11-15T14:42:29.100Z,11.25
2017-11-15T14:43:29.034Z,11.25
2017-11-15T14:44:29.117Z,11.25
2017-11-15T14:45:29.025Z,11.25
2017-11-15T14:46:29.261Z,11.25
2017-11-15T14:47:29.037Z,11.25
2017-11-15T14:48:29.147Z,11.25
2017-11-15T14:49:29.089Z,11.25
2017-11-15T14:50:29.051Z,11.25
2017-11-15T14:51:29.161Z,11.25
2017-11-15T14:52:29.084Z,5.63
2017-11-15T14:53:29.096Z,5.63
2017-11-15T14:54:29.070Z,5.63
2017-11-15T14:55:29.076Z,5.63
2017-11-15T14:56:29.089Z,5.63
2017-11-15T14:57:29.110Z,5.63
2017-11-15T14:58:29.096Z,5.63
2017-11-15T14:59:29.123Z,5.63
2017-11-15T15:00:29.104Z,5.63
2017-11-15T15:01:29.113Z,5.63
2017-11-15T15:02:29.127Z,5.63
2017-11-15T15:50:16.043Z,0.00
2017-11-15T15:51:14.990Z,0.00
2017-11-15T15:53:08.294Z,0.00
2017-11-15T15:54:08.311Z,0.00
2017-11-15T15:55:08.305Z,0.00
2017-11-15T15:56:08.308Z,0.00
2017-11-15T15:57:08.323Z,0.00
2017-11-15T15:58:08.326Z,0.00
2017-11-15T15:59:08.328Z,0.00
2017-11-15T16:00:08.341Z,0.00
2017-11-15T16:01:08.344Z,0.00
2017-11-15T16:02:08.350Z,0.00
2017-11-15T16:03:08.371Z,0.00
2017-11-15T16:04:08.377Z,0.00
2017-11-15T16:05:08.389Z,0.00
2017-11-15T16:06:08.482Z,0.00
2017-11-15T16:07:08.402Z,0.00
2017-11-15T16:08:08.489Z,0.00
2017-11-15T16:09:08.429Z,0.00
2017-11-15T16:10:08.425Z,0.00
2017-11-15T16:11:08.512Z,0.00
2017-11-15T16:12:08.451Z,0.00
2017-11-15T16:13:08.531Z,0.00
2017-11-15T16:14:08.465Z,0.00
2017-11-15T16:15:08.543Z,0.00
2017-11-15T16:16:08.482Z,0.00
2017-11-15T16:17:08.552Z,0.00
2017-11-15T16:18:08.496Z,0.00
2017-11-15T16:19:09.595Z,0.00
2017-11-15T16:20:08.514Z,0.00
2017-11-15T16:21:08.584Z,0.00
2017-11-15T16:22:08.536Z,0.00
2017-11-15T16:23:08.587Z,0.00
2017-11-15T16:24:08.551Z,0.00
2017-11-15T16:25:08.569Z,0.00
2017-11-15T16:26:08.609Z,0.00
2017-11-15T16:27:08.597Z,0.00
2017-11-15T16:28:08.586Z,0.00
2017-11-15T16:29:08.598Z,0.00
2017-11-15T16:30:08.616Z,0.00
2017-11-15T16:31:08.615Z,0.00
2017-11-15T16:32:08.623Z,0.00
2017-11-15T16:33:08.628Z,0.00
2017-11-15T16:34:08.653Z,0.00
2017-11-15T16:35:08.677Z,0.00
2017-11-15T16:36:08.769Z,0.00
2017-11-15T16:37:08.671Z,0.00
2017-11-15T16:38:08.781Z,0.00
2017-11-15T16:39:08.686Z,0.00
2017-11-15T16:40:08.794Z,0.00
2017-11-15T16:41:08.701Z,0.00
2017-11-15T16:42:08.707Z,0.00
2017-11-15T16:43:08.826Z,0.00
2017-11-15T16:44:08.732Z,0.00
2017-11-15T16:45:08.736Z,0.00
2017-11-15T16:46:08.820Z,0.00
2017-11-15T16:47:08.750Z,0.00
2017-11-15T16:48:08.890Z,0.00
2017-11-15T16:49:08.770Z,0.00
2017-11-15T16:50:08.782Z,0.00
2017-11-15T16:51:08.815Z,0.00
2017-11-15T16:52:08.799Z,0.00
2017-11-15T16:53:08.809Z,0.00
2017-11-15T16:54:08.866Z,0.00
2017-11-15T16:55:08.819Z,0.00
2017-11-15T16:56:08.826Z,0.00
2017-11-15T16:57:08.846Z,0.00
2017-11-15T16:58:09.952Z,0.00
2017-11-15T16:59:08.851Z,0.00
2017-11-15T17:00:08.915Z,0.00
2017-11-15T17:01:08.867Z,0.00
2017-11-15T17:02:08.885Z,0.00
2017-11-15T17:03:08.950Z,0.00
2017-11-15T17:04:08.896Z,0.00
2017-11-15T17:05:08.902Z,0.00
2017-11-15T17:06:08.916Z,0.00
2017-11-15T17:07:08.967Z,0.00
2017-11-15T17:08:08.930Z,0.00
2017-11-15T17:09:08.931Z,0.00
2017-11-15T17:10:08.944Z,0.00
2017-11-15T17:11:08.954Z,0.00
2017-11-15T17:12:08.972Z,0.00
2017-11-15T17:13:08.980Z,0.00
2017-11-15T17:14:08.997Z,0.00
2017-11-15T17:15:08.989Z,0.00
2017-11-15T17:16:08.993Z,0.00
2017-11-15T17:17:09.011Z,0.00
2017-11-15T17:18:09.008Z,0.00
2017-11-15T17:19:09.024Z,0.00
2017-11-15T17:20:09.026Z,0.00
2017-11-15T17:21:09.034Z,0.00
2017-11-15T17:22:09.153Z,0.00
2017-11-15T17:23:09.059Z,0.00
2017-11-15T17:24:09.067Z,0.00
2017-11-15T17:25:09.173Z,0.00
2017-11-15T17:26:09.082Z,0.00
2017-11-15T17:27:09.191Z,0.00
2017-11-15T17:28:09.129Z,0.00
2017-11-15T17:29:09.120Z,0.00
2017-11-15T17:30:10.226Z,0.00
2017-11-15T17:31:09.129Z,0.00
2017-11-15T17:32:09.219Z,0.00
2017-11-15T17:33:09.138Z,0.00
2017-11-15T17:34:10.269Z,0.00
2017-11-15T17:35:09.160Z,0.00
2017-11-15T17:36:11.194Z,0.00
2017-11-15T17:37:09.185Z,0.00
2017-11-15T17:38:10.312Z,0.00
2017-11-15T17:39:09.193Z,0.00
2017-11-15T17:40:09.276Z,0.00
2017-11-15T17:41:09.210Z,0.00
2017-11-15T17:42:09.289Z,0.00
2017-11-15T17:43:09.229Z,0.00
2017-11-15T17:44:10.331Z,0.00
2017-11-15T17:45:09.244Z,0.00
2017-11-15T17:46:10.344Z,0.00
2017-11-15T17:47:09.261Z,0.00
2017-11-15T17:48:09.320Z,0.00
2017-11-15T17:49:09.282Z,0.00
2017-11-15T17:50:09.336Z,0.00
2017-11-15T17:51:09.295Z,0.00
2017-11-15T17:52:09.319Z,0.00
2017-11-15T17:53:09.317Z,0.00
2017-11-15T17:54:09.329Z,0.00
2017-11-15T17:55:09.330Z,0.00
2017-11-15T17:56:09.385Z,0.00
2017-11-15T17:57:09.345Z,0.00
2017-11-15T17:58:09.398Z,0.00
2017-11-15T17:59:09.359Z,0.00
2017-11-15T18:00:09.370Z,0.00
2017-11-15T18:01:09.380Z,0.00
2017-11-15T18:02:09.384Z,0.00
2017-11-15T18:03:09.433Z,0.00
2017-11-15T18:04:09.412Z,0.00
2017-11-15T18:05:09.414Z,0.00
2017-11-15T18:06:09.453Z,0.00
2017-11-15T18:07:09.425Z,0.00
2017-11-15T18:08:09.592Z,0.00
2017-11-15T18:09:09.448Z,0.00
2017-11-15T18:10:09.481Z,0.00
2017-11-15T18:11:09.461Z,0.00
2017-11-15T18:12:09.494Z,0.00
2017-11-15T18:13:09.485Z,0.00
2017-11-15T18:14:09.485Z,0.00
2017-11-15T18:15:09.489Z,0.00
2017-11-15T18:16:09.506Z,0.00
2017-11-15T18:17:11.587Z,0.00
2017-11-15T18:18:09.521Z,0.00
2017-11-15T18:19:09.540Z,0.00
2017-11-15T18:20:09.543Z,0.00
2017-11-15T18:21:09.579Z,0.00
2017-11-15T18:22:09.668Z,0.00
2017-11-15T18:23:09.561Z,0.00
2017-11-15T18:24:09.632Z,0.00
2017-11-15T18:25:09.584Z,0.00
2017-11-15T18:26:09.642Z,0.00
2017-11-15T18:27:09.592Z,0.00
2017-11-15T18:28:09.655Z,0.00
2017-11-15T18:29:09.608Z,0.00
2017-11-15T18:30:09.669Z,0.00
2017-11-15T18:31:09.625Z,0.00
2017-11-15T18:32:09.687Z,0.00
2017-11-15T18:33:09.674Z,0.00
2017-11-15T18:34:09.657Z,0.00
2017-11-15T18:35:09.708Z,0.00
2017-11-15T18:36:09.674Z,0.00
2017-11-15T18:37:09.719Z,0.00
2017-11-15T18:38:09.683Z,0.00
2017-11-15T18:39:09.760Z,0.00
2017-11-15T18:40:09.708Z,0.00
2017-11-15T18:41:09.798Z,0.00
2017-11-15T18:42:09.726Z,0.00
2017-11-15T18:43:09.806Z,0.00
2017-11-15T18:44:09.737Z,0.00
2017-11-15T18:45:09.819Z,0.00
2017-11-15T18:46:09.757Z,0.00
2017-11-15T18:47:09.883Z,0.00
2017-11-15T18:48:09.771Z,0.00
2017-11-15T18:49:09.848Z,0.00
2017-11-15T18:50:09.788Z,0.00
2017-11-15T18:51:09.861Z,0.00
2017-11-15T18:52:09.815Z,0.00
2017-11-15T18:53:09.878Z,0.00
2017-11-15T18:54:09.818Z,0.00
2017-11-15T18:55:09.830Z,0.00
2017-11-15T18:56:09.839Z,0.00
2017-11-15T18:57:09.899Z,0.00
2017-11-15T18:58:09.858Z,0.00
2017-11-15T18:59:09.913Z,0.00
2017-11-15T19:00:09.871Z,0.00
2017-11-15T19:01:09.928Z,0.00
2017-11-15T19:02:09.883Z,0.00
2017-11-15T19:03:09.943Z,0.00
2017-11-15T19:04:09.897Z,0.00
2017-11-15T19:05:09.980Z,0.00
2017-11-15T19:06:09.918Z,0.00
2017-11-15T19:07:09.970Z,0.00
2017-11-15T19:08:09.946Z,0.00
2017-11-15T19:09:09.976Z,0.00
2017-11-15T19:10:09.943Z,0.00
2017-11-15T19:11:09.994Z,0.00
2017-11-15T19:12:09.986Z,0.00
2017-11-15T19:13:10.005Z,0.00
2017-11-15T19:14:09.979Z,0.00
2017-11-15T19:15:10.023Z,0.00
2017-11-15T19:16:10.006Z,0.00
2017-11-15T19:17:10.033Z,0.00
2017-11-15T19:18:10.020Z,0.00
2017-11-15T19:19:10.050Z,0.00
2017-11-15T19:20:10.049Z,0.00
2017-11-15T19:21:10.064Z,0.00
2017-11-15T19:22:10.050Z,0.00
2017-11-15T19:23:10.080Z,0.00
2017-11-15T19:24:10.066Z,0.00
2017-11-15T19:25:10.094Z,0.00
2017-11-15T19:26:10.082Z,0.00
2017-11-15T19:27:10.108Z,0.00
2017-11-15T19:28:10.099Z,0.00
2017-11-15T19:29:10.222Z,0.00
2017-11-15T19:30:10.112Z,0.00
2017-11-15T19:31:10.237Z,0.00
2017-11-15T19:32:10.134Z,0.00
2017-11-15T19:33:10.269Z,0.00
2017-11-15T19:34:10.152Z,0.00
2017-11-15T19:35:10.157Z,0.00
2017-11-15T19:36:10.166Z,0.00
2017-11-15T19:37:10.278Z,0.00
2017-11-15T19:38:10.183Z,0.00
2017-11-15T19:39:10.287Z,0.00
2017-11-15T19:40:10.200Z,0.00
2017-11-15T19:41:10.306Z,0.00
2017-11-15T19:42:10.214Z,0.00
2017-11-15T19:43:10.229Z,0.00
2017-11-15T19:44:10.230Z,0.00
2017-11-15T19:45:10.350Z,0.00
2017-11-15T19:46:10.298Z,0.00
2017-11-15T19:47:10.278Z,0.00
2017-11-15T19:48:10.265Z,0.00
2017-11-15T19:49:10.299Z,0.00
2017-11-15T19:50:10.281Z,0.00
2017-11-15T19:51:10.312Z,0.00
2017-11-15T19:52:10.295Z,0.00
2017-11-15T19:53:10.320Z,0.00
2017-11-15T19:54:10.312Z,0.00
2017-11-15T19:55:10.350Z,0.00
2017-11-15T19:56:10.337Z,0.00
2017-11-15T19:57:10.361Z,0.00
2017-11-15T19:58:10.356Z,0.00
2017-11-15T19:59:10.356Z,0.00
2017-11-15T20:00:10.362Z,0.00
2017-11-15T20:01:10.386Z,0.00
2017-11-15T20:02:10.378Z,0.00
2017-11-15T20:03:10.400Z,0.00
2017-11-15T20:04:10.397Z,0.00
2017-11-15T20:05:10.411Z,0.00
2017-11-15T20:06:10.407Z,0.00
2017-11-15T20:07:10.420Z,0.00
2017-11-15T20:08:10.424Z,0.00
2017-11-15T20:09:10.541Z,0.00
2017-11-15T20:10:10.445Z,0.00
2017-11-15T20:11:10.555Z,0.00
2017-11-15T20:12:10.457Z,0.00
2017-11-15T20:13:10.572Z,0.00
2017-11-15T20:14:10.472Z,0.00
2017-11-15T20:15:10.486Z,0.00
2017-11-15T20:16:10.496Z,0.00
2017-11-15T20:17:10.603Z,0.00
2017-11-15T20:18:10.510Z,0.00
2017-11-15T20:19:10.601Z,0.00
2017-11-15T20:20:10.526Z,0.00
2017-11-15T20:21:10.615Z,0.00
2017-11-15T20:22:10.536Z,0.00
2017-11-15T20:23:10.621Z,0.00
2017-11-15T20:24:10.559Z,0.00
2017-11-15T20:25:10.648Z,0.00
2017-11-15T20:26:10.595Z,0.00
2017-11-15T20:27:10.660Z,0.00
2017-11-15T20:28:10.587Z,0.00
2017-11-15T20:29:10.667Z,0.00
2017-11-15T20:30:10.605Z,0.00
2017-11-15T20:31:10.655Z,0.00
2017-11-15T20:32:10.617Z,0.00
2017-11-15T20:33:10.667Z,0.00
2017-11-15T20:34:10.639Z,0.00
2017-11-15T20:35:10.683Z,0.00
2017-11-15T20:36:10.652Z,0.00
2017-11-15T20:37:10.696Z,0.00
2017-11-15T20:38:10.671Z,0.00
2017-11-15T20:39:10.708Z,0.00
2017-11-15T20:40:10.688Z,0.00
2017-11-15T20:41:10.824Z,0.00
2017-11-15T20:42:10.702Z,0.00
2017-11-15T20:43:10.851Z,0.00
2017-11-15T20:44:10.753Z,0.00
2017-11-15T20:45:11.786Z,0.00
2017-11-15T20:46:10.735Z,0.00
2017-11-15T20:47:10.774Z,0.00
2017-11-15T20:48:10.753Z,0.00
2017-11-15T20:49:10.891Z,0.00
2017-11-15T20:50:10.780Z,0.00
2017-11-15T20:51:10.902Z,0.00
2017-11-15T20:52:10.784Z,0.00
2017-11-15T20:53:10.917Z,0.00
2017-11-15T20:54:10.810Z,0.00
2017-11-15T20:55:10.929Z,0.00
2017-11-15T20:56:10.821Z,0.00
2017-11-15T20:57:10.943Z,0.00
2017-11-15T20:58:10.837Z,0.00